首页
METAR-TAF:

METAR-TAF

机场 :

基希讷乌国际机场

基希讷乌, 摩尔多瓦

纬度: 46-55-40N, 经度: 028-55-51E, 海拔: 122米

当前天气观测

该预报发布于29分钟前的20:30 UTC
风速7节,风向
温度 17°C
湿度 52%
气压 1015 hPa
能见度10公里或以上
1500米以下无云,无积雨云

METAR: LUKK 232030Z 08007KT CAVOK 17/07 Q1015 R08/D NOSIG

时间: 23:59 (20:59 UTC)

预报

该预报发布于3小时和39分钟前的17:20 UTC
预报有效从23日的 18点(UTC)到 24日的 18点(UTC)
风速6节,风向东转东北
能见度10公里或以上
1500米以下无云,无积雨云
成为
从 24日的 10点(UTC)到 24日的 12点(UTC)
风速8节,风向东南

TAF: LUKK 231720Z 2318/2418 07006KT CAVOK BECMG 2410/2412 13008KT

超过4000个机场的气象观测和天气预报(METAR&TAF报告)。

可查询的气象台以黄色和红色小点在地图上表示。

将鼠标移到小点上方,可查看气象台名称。

然后点击查看天气观测和预报。

如需切换地图:点击带黑十字的绿色按钮放大地图;点击带横线的绿色按钮缩小地图;或者点击绿色箭头查看邻近地区的地图。


METAR-TAF: